sensor_id;sensor_type;location;lat;lon;timestamp;temperature;humidity
5210;DHT22;2624;48.048;11.706;2024-03-23T00:57:50;10.30;99.90
5210;DHT22;2624;48.048;11.706;2024-03-23T01:02:52;10.40;99.90
5210;DHT22;2624;48.048;11.706;2024-03-23T01:07:55;10.20;99.90
5210;DHT22;2624;48.048;11.706;2024-03-23T01:12:57;10.20;99.90
5210;DHT22;2624;48.048;11.706;2024-03-23T01:17:59;10.70;99.90
5210;DHT22;2624;48.048;11.706;2024-03-23T01:23:02;10.40;99.90
5210;DHT22;2624;48.048;11.706;2024-03-23T01:28:05;10.40;99.90
5210;DHT22;2624;48.048;11.706;2024-03-23T01:33:07;10.70;99.90
5210;DHT22;2624;48.048;11.706;2024-03-23T01:38:11;10.70;99.90
5210;DHT22;2624;48.048;11.706;2024-03-23T01:43:13;10.50;99.90
5210;DHT22;2624;48.048;11.706;2024-03-23T01:48:15;10.40;99.90
5210;DHT22;2624;48.048;11.706;2024-03-23T01:53:18;10.60;99.90
5210;DHT22;2624;48.048;11.706;2024-03-23T01:58:22;10.40;99.90
5210;DHT22;2624;48.048;11.706;2024-03-23T02:03:24;10.20;99.90
5210;DHT22;2624;48.048;11.706;2024-03-23T02:08:28;9.90;99.90
5210;DHT22;2624;48.048;11.706;2024-03-23T02:13:30;9.80;99.90
5210;DHT22;2624;48.048;11.706;2024-03-23T02:18:32;9.90;99.90
5210;DHT22;2624;48.048;11.706;2024-03-23T02:23:35;9.80;99.90
5210;DHT22;2624;48.048;11.706;2024-03-23T02:28:37;9.90;99.90
5210;DHT22;2624;48.048;11.706;2024-03-23T02:33:39;10.00;99.90
5210;DHT22;2624;48.048;11.706;2024-03-23T02:38:42;9.70;99.90
5210;DHT22;2624;48.048;11.706;2024-03-23T02:43:45;9.80;99.90
5210;DHT22;2624;48.048;11.706;2024-03-23T02:48:48;9.70;99.90
5210;DHT22;2624;48.048;11.706;2024-03-23T02:53:52;9.60;99.90
5210;DHT22;2624;48.048;11.706;2024-03-23T02:58:53;9.60;99.90
5210;DHT22;2624;48.048;11.706;2024-03-23T03:03:55;9.30;99.90
5210;DHT22;2624;48.048;11.706;2024-03-23T03:08:59;9.20;99.90
5210;DHT22;2624;48.048;11.706;2024-03-23T03:14:01;9.30;99.90
5210;DHT22;2624;48.048;11.706;2024-03-23T03:19:03;9.20;99.90
5210;DHT22;2624;48.048;11.706;2024-03-23T03:24:07;9.10;99.90
5210;DHT22;2624;48.048;11.706;2024-03-23T03:29:08;9.00;99.90
5210;DHT22;2624;48.048;11.706;2024-03-23T03:34:10;8.90;99.90
5210;DHT22;2624;48.048;11.706;2024-03-23T03:39:14;8.90;99.90
5210;DHT22;2624;48.048;11.706;2024-03-23T03:44:16;8.90;99.90
5210;DHT22;2624;48.048;11.706;2024-03-23T03:49:18;8.80;99.90
5210;DHT22;2624;48.048;11.706;2024-03-23T03:54:22;8.80;99.90
5210;DHT22;2624;48.048;11.706;2024-03-23T03:59:24;8.80;99.90
5210;DHT22;2624;48.048;11.706;2024-03-23T04:04:25;8.80;99.90
5210;DHT22;2624;48.048;11.706;2024-03-23T04:09:29;8.90;99.90
5210;DHT22;2624;48.048;11.706;2024-03-23T04:14:31;8.80;99.90
5210;DHT22;2624;48.048;11.706;2024-03-23T04:19:32;8.60;99.90
5210;DHT22;2624;48.048;11.706;2024-03-23T04:24:37;8.50;99.90
5210;DHT22;2624;48.048;11.706;2024-03-23T04:29:39;8.40;99.90
5210;DHT22;2624;48.048;11.706;2024-03-23T04:34:41;8.30;99.90
5210;DHT22;2624;48.048;11.706;2024-03-23T04:39:45;8.50;99.90
5210;DHT22;2624;48.048;11.706;2024-03-23T04:44:47;8.40;99.90
5210;DHT22;2624;48.048;11.706;2024-03-23T04:49:49;8.40;99.90
5210;DHT22;2624;48.048;11.706;2024-03-23T04:54:52;8.40;99.90
5210;DHT22;2624;48.048;11.706;2024-03-23T04:59:54;8.40;99.90
5210;DHT22;2624;48.048;11.706;2024-03-23T05:04:56;8.30;99.90
5210;DHT22;2624;48.048;11.706;2024-03-23T05:09:59;8.20;99.90
5210;DHT22;2624;48.048;11.706;2024-03-23T05:15:01;8.20;99.90
5210;DHT22;2624;48.048;11.706;2024-03-23T05:20:04;8.10;99.90
5210;DHT22;2624;48.048;11.706;2024-03-23T05:25:11;8.10;99.90
5210;DHT22;2624;48.048;11.706;2024-03-23T05:30:14;8.20;99.90
5210;DHT22;2624;48.048;11.706;2024-03-23T05:35:16;8.40;99.90
5210;DHT22;2624;48.048;11.706;2024-03-23T05:40:19;8.40;99.90
5210;DHT22;2624;48.048;11.706;2024-03-23T05:45:21;8.50;99.90
5210;DHT22;2624;48.048;11.706;2024-03-23T05:50:23;8.30;99.90
5210;DHT22;2624;48.048;11.706;2024-03-23T05:55:26;8.60;99.90
5210;DHT22;2624;48.048;11.706;2024-03-23T06:00:29;8.50;99.90
5210;DHT22;2624;48.048;11.706;2024-03-23T06:05:31;8.60;99.90
5210;DHT22;2624;48.048;11.706;2024-03-23T06:10:34;8.80;99.90
5210;DHT22;2624;48.048;11.706;2024-03-23T06:15:36;8.70;99.90
5210;DHT22;2624;48.048;11.706;2024-03-23T06:20:38;8.80;99.90
5210;DHT22;2624;48.048;11.706;2024-03-23T06:25:42;8.70;99.90
5210;DHT22;2624;48.048;11.706;2024-03-23T06:30:44;8.80;99.90
5210;DHT22;2624;48.048;11.706;2024-03-23T06:35:50;8.80;99.90
5210;DHT22;2624;48.048;11.706;2024-03-23T06:40:54;8.80;99.90
5210;DHT22;2624;48.048;11.706;2024-03-23T06:45:56;8.90;99.90
5210;DHT22;2624;48.048;11.706;2024-03-23T06:50:58;9.20;99.90
5210;DHT22;2624;48.048;11.706;2024-03-23T06:56:02;9.60;99.90
5210;DHT22;2624;48.048;11.706;2024-03-23T07:01:04;9.90;99.90
5210;DHT22;2624;48.048;11.706;2024-03-23T07:06:06;10.10;99.90
5210;DHT22;2624;48.048;11.706;2024-03-23T07:11:09;10.40;99.90
5210;DHT22;2624;48.048;11.706;2024-03-23T07:16:11;10.40;99.90
5210;DHT22;2624;48.048;11.706;2024-03-23T07:21:15;10.60;99.90
5210;DHT22;2624;48.048;11.706;2024-03-23T07:26:18;10.50;99.90
5210;DHT22;2624;48.048;11.706;2024-03-23T07:31:20;11.20;99.90
5210;DHT22;2624;48.048;11.706;2024-03-23T07:36:23;11.70;99.90
5210;DHT22;2624;48.048;11.706;2024-03-23T07:41:26;11.20;99.90
5210;DHT22;2624;48.048;11.706;2024-03-23T07:46:28;10.80;99.90
5210;DHT22;2624;48.048;11.706;2024-03-23T07:51:30;10.80;99.90
5210;DHT22;2624;48.048;11.706;2024-03-23T07:56:34;11.00;99.90
5210;DHT22;2624;48.048;11.706;2024-03-23T08:01:36;10.80;99.90
5210;DHT22;2624;48.048;11.706;2024-03-23T08:06:38;10.60;99.90
5210;DHT22;2624;48.048;11.706;2024-03-23T08:11:41;10.50;99.90
5210;DHT22;2624;48.048;11.706;2024-03-23T08:16:46;10.40;99.90
5210;DHT22;2624;48.048;11.706;2024-03-23T08:21:49;10.30;99.90
5210;DHT22;2624;48.048;11.706;2024-03-23T08:26:54;10.30;99.90
5210;DHT22;2624;48.048;11.706;2024-03-23T08:31:56;10.30;99.90
5210;DHT22;2624;48.048;11.706;2024-03-23T08:36:58;10.30;99.90
5210;DHT22;2624;48.048;11.706;2024-03-23T08:42:01;10.20;99.90
5210;DHT22;2624;48.048;11.706;2024-03-23T08:47:03;10.10;99.90
5210;DHT22;2624;48.048;11.706;2024-03-23T08:52:05;10.00;99.90
5210;DHT22;2624;48.048;11.706;2024-03-23T08:57:09;10.10;99.90
5210;DHT22;2624;48.048;11.706;2024-03-23T09:02:10;10.00;99.90
5210;DHT22;2624;48.048;11.706;2024-03-23T09:07:12;9.90;99.90
5210;DHT22;2624;48.048;11.706;2024-03-23T09:12:16;9.90;99.90
5210;DHT22;2624;48.048;11.706;2024-03-23T09:17:18;9.80;99.90
5210;DHT22;2624;48.048;11.706;2024-03-23T09:22:20;9.80;99.90
5210;DHT22;2624;48.048;11.706;2024-03-23T09:27:23;9.80;99.90
5210;DHT22;2624;48.048;11.706;2024-03-23T09:32:25;9.80;99.90
5210;DHT22;2624;48.048;11.706;2024-03-23T09:37:27;9.80;99.90
5210;DHT22;2624;48.048;11.706;2024-03-23T09:42:30;9.80;99.90
5210;DHT22;2624;48.048;11.706;2024-03-23T09:47:33;9.70;99.90
5210;DHT22;2624;48.048;11.706;2024-03-23T09:52:35;9.70;99.90
5210;DHT22;2624;48.048;11.706;2024-03-23T09:57:38;9.50;99.90
5210;DHT22;2624;48.048;11.706;2024-03-23T10:02:40;9.60;99.90
5210;DHT22;2624;48.048;11.706;2024-03-23T10:07:42;9.50;99.90
5210;DHT22;2624;48.048;11.706;2024-03-23T10:12:46;9.40;99.90
5210;DHT22;2624;48.048;11.706;2024-03-23T10:17:51;9.50;99.90
5210;DHT22;2624;48.048;11.706;2024-03-23T10:22:54;9.30;99.90
5210;DHT22;2624;48.048;11.706;2024-03-23T10:28:00;9.20;99.90
5210;DHT22;2624;48.048;11.706;2024-03-23T10:33:11;9.10;99.90
5210;DHT22;2624;48.048;11.706;2024-03-23T10:38:13;9.10;99.90
5210;DHT22;2624;48.048;11.706;2024-03-23T10:43:17;9.00;99.90
5210;DHT22;2624;48.048;11.706;2024-03-23T10:48:19;9.00;99.90
5210;DHT22;2624;48.048;11.706;2024-03-23T10:53:22;9.10;99.90
5210;DHT22;2624;48.048;11.706;2024-03-23T10:58:31;8.80;99.90
5210;DHT22;2624;48.048;11.706;2024-03-23T11:03:34;8.90;99.90
5210;DHT22;2624;48.048;11.706;2024-03-23T11:08:38;8.80;99.90
5210;DHT22;2624;48.048;11.706;2024-03-23T11:13:41;9.00;99.90
5210;DHT22;2624;48.048;11.706;2024-03-23T11:18:43;9.00;99.90
5210;DHT22;2624;48.048;11.706;2024-03-23T11:23:45;8.90;99.90
5210;DHT22;2624;48.048;11.706;2024-03-23T11:28:49;8.80;99.90
5210;DHT22;2624;48.048;11.706;2024-03-23T11:34:03;8.90;99.90
5210;DHT22;2624;48.048;11.706;2024-03-23T11:39:12;9.00;99.90
5210;DHT22;2624;48.048;11.706;2024-03-23T11:44:19;8.80;99.90
5210;DHT22;2624;48.048;11.706;2024-03-23T11:49:22;8.80;99.90
5210;DHT22;2624;48.048;11.706;2024-03-23T11:54:25;8.70;99.90
5210;DHT22;2624;48.048;11.706;2024-03-23T11:59:36;8.80;99.90
5210;DHT22;2624;48.048;11.706;2024-03-23T12:04:39;8.60;99.90
5210;DHT22;2624;48.048;11.706;2024-03-23T12:09:41;8.60;99.90
5210;DHT22;2624;48.048;11.706;2024-03-23T12:14:45;8.60;99.90
5210;DHT22;2624;48.048;11.706;2024-03-23T12:20:01;8.70;99.90
5210;DHT22;2624;48.048;11.706;2024-03-23T12:25:04;8.40;99.90
5210;DHT22;2624;48.048;11.706;2024-03-23T12:30:10;8.50;99.90
5210;DHT22;2624;48.048;11.706;2024-03-23T12:35:12;8.50;99.90
5210;DHT22;2624;48.048;11.706;2024-03-23T12:40:14;8.60;99.90
5210;DHT22;2624;48.048;11.706;2024-03-23T12:45:17;8.60;99.90
5210;DHT22;2624;48.048;11.706;2024-03-23T12:50:19;8.70;99.90
5210;DHT22;2624;48.048;11.706;2024-03-23T12:55:21;8.50;99.90
5210;DHT22;2624;48.048;11.706;2024-03-23T13:00:24;8.70;99.90
5210;DHT22;2624;48.048;11.706;2024-03-23T13:05:26;8.80;99.90
5210;DHT22;2624;48.048;11.706;2024-03-23T13:10:28;8.90;99.90
5210;DHT22;2624;48.048;11.706;2024-03-23T13:15:32;8.90;99.90
5210;DHT22;2624;48.048;11.706;2024-03-23T13:20:35;8.70;99.90
5210;DHT22;2624;48.048;11.706;2024-03-23T13:25:37;8.80;99.90
5210;DHT22;2624;48.048;11.706;2024-03-23T13:30:40;8.70;99.90
5210;DHT22;2624;48.048;11.706;2024-03-23T13:35:51;8.70;99.90
5210;DHT22;2624;48.048;11.706;2024-03-23T13:40:54;8.60;99.90
5210;DHT22;2624;48.048;11.706;2024-03-23T13:45:58;8.40;99.90
5210;DHT22;2624;48.048;11.706;2024-03-23T13:51:04;8.40;99.90
5210;DHT22;2624;48.048;11.706;2024-03-23T13:56:06;8.50;99.90
5210;DHT22;2624;48.048;11.706;2024-03-23T14:01:09;8.30;99.90
5210;DHT22;2624;48.048;11.706;2024-03-23T14:06:11;8.40;99.90
5210;DHT22;2624;48.048;11.706;2024-03-23T14:11:13;8.40;99.90
5210;DHT22;2624;48.048;11.706;2024-03-23T14:16:16;8.30;99.90
5210;DHT22;2624;48.048;11.706;2024-03-23T14:21:18;8.20;99.90
5210;DHT22;2624;48.048;11.706;2024-03-23T14:26:20;8.60;99.90
5210;DHT22;2624;48.048;11.706;2024-03-23T14:31:23;8.50;99.90
5210;DHT22;2624;48.048;11.706;2024-03-23T14:36:26;7.40;99.90
5210;DHT22;2624;48.048;11.706;2024-03-23T14:41:29;7.10;99.90
5210;DHT22;2624;48.048;11.706;2024-03-23T14:46:32;7.40;99.90
5210;DHT22;2624;48.048;11.706;2024-03-23T14:51:34;7.20;99.90
5210;DHT22;2624;48.048;11.706;2024-03-23T14:56:36;6.90;99.90
5210;DHT22;2624;48.048;11.706;2024-03-23T15:01:39;7.40;99.90
5210;DHT22;2624;48.048;11.706;2024-03-23T15:06:42;7.50;99.90
5210;DHT22;2624;48.048;11.706;2024-03-23T15:11:46;7.70;99.90
5210;DHT22;2624;48.048;11.706;2024-03-23T15:16:50;7.70;99.90
5210;DHT22;2624;48.048;11.706;2024-03-23T15:21:53;7.40;99.90
5210;DHT22;2624;48.048;11.706;2024-03-23T15:26:55;6.90;99.90
5210;DHT22;2624;48.048;11.706;2024-03-23T15:31:58;7.40;99.90
5210;DHT22;2624;48.048;11.706;2024-03-23T15:37:00;7.50;99.90
5210;DHT22;2624;48.048;11.706;2024-03-23T15:42:02;7.30;99.90
5210;DHT22;2624;48.048;11.706;2024-03-23T15:47:06;7.20;99.90
5210;DHT22;2624;48.048;11.706;2024-03-23T15:52:08;7.20;99.90
5210;DHT22;2624;48.048;11.706;2024-03-23T15:57:10;6.80;99.90
5210;DHT22;2624;48.048;11.706;2024-03-23T16:02:13;6.70;99.90
5210;DHT22;2624;48.048;11.706;2024-03-23T16:07:15;6.60;99.90
5210;DHT22;2624;48.048;11.706;2024-03-23T16:12:17;6.50;99.90
5210;DHT22;2624;48.048;11.706;2024-03-23T16:17:20;6.50;99.90
5210;DHT22;2624;48.048;11.706;2024-03-23T16:22:22;6.80;99.90
5210;DHT22;2624;48.048;11.706;2024-03-23T16:27:24;6.70;99.90
5210;DHT22;2624;48.048;11.706;2024-03-23T16:32:27;6.60;99.90
5210;DHT22;2624;48.048;11.706;2024-03-23T16:37:30;6.40;99.90
5210;DHT22;2624;48.048;11.706;2024-03-23T16:42:32;6.50;99.90
5210;DHT22;2624;48.048;11.706;2024-03-23T16:47:35;6.40;99.90
5210;DHT22;2624;48.048;11.706;2024-03-23T16:52:38;6.20;99.90
5210;DHT22;2624;48.048;11.706;2024-03-23T16:57:40;6.00;99.90
5210;DHT22;2624;48.048;11.706;2024-03-23T17:02:44;6.30;99.90
5210;DHT22;2624;48.048;11.706;2024-03-23T17:07:46;6.20;99.90
5210;DHT22;2624;48.048;11.706;2024-03-23T17:12:48;5.80;99.90
5210;DHT22;2624;48.048;11.706;2024-03-23T17:17:51;5.50;99.90
5210;DHT22;2624;48.048;11.706;2024-03-23T17:22:54;5.60;99.90
5210;DHT22;2624;48.048;11.706;2024-03-23T17:27:56;5.90;99.90
5210;DHT22;2624;48.048;11.706;2024-03-23T17:33:00;6.40;99.90
5210;DHT22;2624;48.048;11.706;2024-03-23T17:38:03;5.90;99.90
5210;DHT22;2624;48.048;11.706;2024-03-23T17:43:05;5.80;99.90
5210;DHT22;2624;48.048;11.706;2024-03-23T17:48:08;5.90;99.90
5210;DHT22;2624;48.048;11.706;2024-03-23T17:53:10;6.40;99.90
5210;DHT22;2624;48.048;11.706;2024-03-23T17:58:12;6.40;99.90
5210;DHT22;2624;48.048;11.706;2024-03-23T18:03:15;5.80;99.90
5210;DHT22;2624;48.048;11.706;2024-03-23T18:08:17;5.60;99.90
5210;DHT22;2624;48.048;11.706;2024-03-23T18:13:19;6.10;99.90
5210;DHT22;2624;48.048;11.706;2024-03-23T18:18:22;5.80;99.90
5210;DHT22;2624;48.048;11.706;2024-03-23T18:23:25;5.40;99.90
5210;DHT22;2624;48.048;11.706;2024-03-23T18:28:27;5.60;99.90
5210;DHT22;2624;48.048;11.706;2024-03-23T18:33:36;5.60;99.90
5210;DHT22;2624;48.048;11.706;2024-03-23T18:38:38;5.60;99.90
5210;DHT22;2624;48.048;11.706;2024-03-23T18:43:40;5.70;99.90
5210;DHT22;2624;48.048;11.706;2024-03-23T18:48:44;5.90;99.90
5210;DHT22;2624;48.048;11.706;2024-03-23T18:53:45;5.60;99.90
5210;DHT22;2624;48.048;11.706;2024-03-23T18:58:47;5.70;99.90
5210;DHT22;2624;48.048;11.706;2024-03-23T19:03:51;5.70;99.90
5210;DHT22;2624;48.048;11.706;2024-03-23T19:08:52;5.90;99.90
5210;DHT22;2624;48.048;11.706;2024-03-23T19:13:55;5.60;99.90
5210;DHT22;2624;48.048;11.706;2024-03-23T19:18:58;5.60;99.90
5210;DHT22;2624;48.048;11.706;2024-03-23T19:24:00;5.70;99.90
5210;DHT22;2624;48.048;11.706;2024-03-23T19:29:02;5.30;99.90
5210;DHT22;2624;48.048;11.706;2024-03-23T19:34:07;5.40;99.90
5210;DHT22;2624;48.048;11.706;2024-03-23T19:39:09;5.10;99.90
5210;DHT22;2624;48.048;11.706;2024-03-23T19:44:12;5.20;99.90
5210;DHT22;2624;48.048;11.706;2024-03-23T19:49:16;4.40;99.90
5210;DHT22;2624;48.048;11.706;2024-03-23T19:54:18;4.50;99.90
5210;DHT22;2624;48.048;11.706;2024-03-23T19:59:20;4.60;99.90
5210;DHT22;2624;48.048;11.706;2024-03-23T20:04:23;4.60;99.90
5210;DHT22;2624;48.048;11.706;2024-03-23T20:09:25;4.20;99.90
5210;DHT22;2624;48.048;11.706;2024-03-23T20:14:29;4.40;99.90
5210;DHT22;2624;48.048;11.706;2024-03-23T20:19:32;4.50;99.90
5210;DHT22;2624;48.048;11.706;2024-03-23T20:24:34;4.40;99.90
5210;DHT22;2624;48.048;11.706;2024-03-23T20:29:37;4.40;99.90
5210;DHT22;2624;48.048;11.706;2024-03-23T20:34:40;4.50;99.90
5210;DHT22;2624;48.048;11.706;2024-03-23T20:39:43;4.80;99.90
5210;DHT22;2624;48.048;11.706;2024-03-23T20:44:45;4.40;99.90
5210;DHT22;2624;48.048;11.706;2024-03-23T20:49:50;4.40;99.90
5210;DHT22;2624;48.048;11.706;2024-03-23T20:54:51;4.70;99.90
5210;DHT22;2624;48.048;11.706;2024-03-23T20:59:53;4.50;99.90
5210;DHT22;2624;48.048;11.706;2024-03-23T21:04:58;4.50;99.90
5210;DHT22;2624;48.048;11.706;2024-03-23T21:10:00;4.30;99.90
5210;DHT22;2624;48.048;11.706;2024-03-23T21:15:02;4.20;99.90
5210;DHT22;2624;48.048;11.706;2024-03-23T21:20:07;4.20;99.90
5210;DHT22;2624;48.048;11.706;2024-03-23T21:25:13;4.30;99.90
5210;DHT22;2624;48.048;11.706;2024-03-23T21:30:15;4.30;99.90
5210;DHT22;2624;48.048;11.706;2024-03-23T21:35:20;4.50;99.90
5210;DHT22;2624;48.048;11.706;2024-03-23T21:40:22;4.30;99.90
5210;DHT22;2624;48.048;11.706;2024-03-23T21:45:24;4.30;99.90
5210;DHT22;2624;48.048;11.706;2024-03-23T21:50:27;4.20;99.90
5210;DHT22;2624;48.048;11.706;2024-03-23T21:55:29;4.20;99.90
5210;DHT22;2624;48.048;11.706;2024-03-23T22:00:31;4.20;99.90
5210;DHT22;2624;48.048;11.706;2024-03-23T22:05:35;4.70;99.90
5210;DHT22;2624;48.048;11.706;2024-03-23T22:10:37;4.30;99.90
5210;DHT22;2624;48.048;11.706;2024-03-23T22:15:40;4.10;99.90
5210;DHT22;2624;48.048;11.706;2024-03-23T22:20:44;3.90;99.90
5210;DHT22;2624;48.048;11.706;2024-03-23T22:25:47;4.00;99.90
5210;DHT22;2624;48.048;11.706;2024-03-23T22:30:56;3.90;99.90
5210;DHT22;2624;48.048;11.706;2024-03-23T22:35:59;4.00;99.90
5210;DHT22;2624;48.048;11.706;2024-03-23T22:41:03;4.00;99.90
5210;DHT22;2624;48.048;11.706;2024-03-23T22:46:06;3.70;99.90
5210;DHT22;2624;48.048;11.706;2024-03-23T22:51:12;4.20;99.90
5210;DHT22;2624;48.048;11.706;2024-03-23T22:56:14;4.10;99.90
5210;DHT22;2624;48.048;11.706;2024-03-23T23:01:17;4.00;99.90
5210;DHT22;2624;48.048;11.706;2024-03-23T23:06:20;3.70;99.90
5210;DHT22;2624;48.048;11.706;2024-03-23T23:11:22;4.00;99.90
5210;DHT22;2624;48.048;11.706;2024-03-23T23:16:24;3.70;99.90
5210;DHT22;2624;48.048;11.706;2024-03-23T23:21:27;3.70;99.90
5210;DHT22;2624;48.048;11.706;2024-03-23T23:26:29;4.00;99.90
5210;DHT22;2624;48.048;11.706;2024-03-23T23:31:31;4.10;99.90
5210;DHT22;2624;48.048;11.706;2024-03-23T23:36:35;4.10;99.90
5210;DHT22;2624;48.048;11.706;2024-03-23T23:41:37;4.00;99.90
5210;DHT22;2624;48.048;11.706;2024-03-23T23:46:39;3.90;99.90
5210;DHT22;2624;48.048;11.706;2024-03-23T23:51:42;4.30;99.90
5210;DHT22;2624;48.048;11.706;2024-03-23T23:56:44;4.10;99.90
